Time;durP1;ratioP1;P1;durP2;ratioP2;P2;SDS_P1;SDS_P2;PMS_P1;PMS_P2;Temp;Humidity;BMP_temperature;BMP_pressure;BME280_temperature;BME280_humidity;BME280_pressure;Samples;Min_cycle;Max_cycle;Signal;HPM_P1;HPM_P2
2022/10/06 00:02:26;;;;;;;7.30;4.63;;;;;;;13.68;100.00;100984.25;5110511;28;20079;-80
2022/10/06 00:04:53;;;;;;;7.18;4.63;;;;;;;13.84;100.00;101008.31;5105908;28;20052;-77
2022/10/06 00:07:20;;;;;;;6.78;4.13;;;;;;;13.87;100.00;101012.59;5102753;28;20043;-82
2022/10/06 00:09:46;;;;;;;6.93;4.50;;;;;;;13.92;100.00;101015.88;5106556;28;20047;-82
2022/10/06 00:12:13;;;;;;;6.88;4.43;;;;;;;13.95;100.00;101023.72;5107882;28;20047;-85
2022/10/06 00:14:39;;;;;;;6.50;4.70;;;;;;;13.96;100.00;101017.47;5109691;28;20048;-79
2022/10/06 00:17:06;;;;;;;6.50;4.60;;;;;;;14.03;100.00;101024.19;5109869;28;20055;-81
2022/10/06 00:19:32;;;;;;;5.32;4.22;;;;;;;14.11;100.00;101016.69;5115919;28;20112;-76
2022/10/06 00:21:59;;;;;;;7.15;4.93;;;;;;;14.16;100.00;101019.13;5114578;28;20439;-83
2022/10/06 00:24:26;;;;;;;7.35;4.80;;;;;;;14.07;100.00;101000.94;5111758;28;20060;-82
2022/10/06 00:26:52;;;;;;;9.85;4.80;;;;;;;14.23;100.00;101024.03;5111004;28;20047;-80
2022/10/06 00:29:19;;;;;;;5.75;4.28;;;;;;;14.20;100.00;101024.19;5119569;28;20804;-82
2022/10/06 00:31:45;;;;;;;5.78;4.68;;;;;;;14.11;100.00;101008.69;5110308;28;20043;-75
2022/10/06 00:34:12;;;;;;;6.88;4.25;;;;;;;14.16;100.00;101009.31;5109117;28;20056;-85
2022/10/06 00:36:39;;;;;;;6.07;4.47;;;;;;;14.26;100.00;101034.53;5108795;28;20058;-76
2022/10/06 00:39:05;;;;;;;6.05;4.47;;;;;;;14.29;100.00;101045.03;5108315;28;20062;-78
2022/10/06 00:41:32;;;;;;;7.45;4.50;;;;;;;14.29;100.00;101047.69;5107430;28;20225;-84
2022/10/06 00:43:59;;;;;;;7.15;4.22;;;;;;;14.21;100.00;101036.56;5103341;28;20047;-78
2022/10/06 00:46:32;;;;;;;7.22;4.45;;;;;;;14.25;100.00;101056.78;5101878;28;20051;-77
2022/10/06 00:49:07;;;;;;;6.38;4.75;;;;;;;14.25;100.00;101064.78;5100976;28;20143;-81
2022/10/06 00:51:37;;;;;;;7.35;4.50;;;;;;;14.24;100.00;101070.16;5106233;28;20494;-79
2022/10/06 00:54:04;;;;;;;;;;;;;;;14.23;100.00;101079.97;5109485;28;20422;-83
2022/10/06 00:56:31;;;;;;;6.18;4.35;;;;;;;14.14;100.00;101067.13;5111131;28;20252;-84
2022/10/06 00:58:58;;;;;;;7.78;4.22;;;;;;;14.13;100.00;101067.19;5107046;28;20687;-83
2022/10/06 01:01:26;;;;;;;9.43;4.80;;;;;;;14.29;100.00;101092.97;5110418;28;20048;-77
2022/10/06 01:03:59;;;;;;;5.35;4.22;;;;;;;14.26;100.00;101090.47;5107732;28;20044;-86
2022/10/06 01:06:25;;;;;;;8.63;4.70;;;;;;;14.12;100.00;101069.00;5112958;28;20086;-80
2022/10/06 01:08:52;;;;;;;4.80;4.25;;;;;;;14.21;100.00;101089.84;5102778;27;20098;-86
2022/10/06 01:11:19;;;;;;;6.90;4.32;;;;;;;14.21;100.00;101095.16;5107537;28;20065;-84
2022/10/06 01:13:46;;;;;;;6.60;4.63;;;;;;;14.22;100.00;101090.69;5109686;28;20044;-80
2022/10/06 01:16:16;;;;;;;8.13;4.68;;;;;;;14.26;100.00;101094.94;5104376;28;20039;-78
2022/10/06 01:18:46;;;;;;;4.57;4.13;;;;;;;14.29;100.00;101098.31;5106641;28;20052;-81
2022/10/06 01:21:26;;;;;;;7.28;4.57;;;;;;;14.19;100.00;101070.41;5111137;28;20040;-86
2022/10/06 01:23:55;;;;;;;9.60;4.38;;;;;;;14.24;100.00;101073.69;5110733;28;20048;-83
2022/10/06 01:26:23;;;;;;;8.35;4.38;;;;;;;14.46;100.00;101108.13;5109957;28;20596;-85
2022/10/06 01:28:50;;;;;;;5.63;4.55;;;;;;;14.38;100.00;101081.84;5105253;28;20146;-84
2022/10/06 01:31:17;;;;;;;5.25;4.53;;;;;;;14.46;100.00;101083.28;5107678;28;20035;-86
2022/10/06 01:33:44;;;;;;;7.97;5.00;;;;;;;14.59;100.00;101111.03;5100916;28;20212;-80
2022/10/06 01:36:10;;;;;;;6.35;4.57;;;;;;;14.65;100.00;101121.34;5107660;28;20044;-82
2022/10/06 01:38:37;;;;;;;5.47;4.35;;;;;;;14.63;100.00;101118.78;5110595;28;20465;-78
2022/10/06 01:41:03;;;;;;;7.13;4.07;;;;;;;14.73;100.00;101136.00;5107569;28;20059;-81
2022/10/06 01:43:30;;;;;;;7.68;4.30;;;;;;;14.72;100.00;101128.09;5107968;28;20047;-84
2022/10/06 01:45:57;;;;;;;7.00;4.10;;;;;;;14.66;100.00;101128.41;5109643;28;20063;-81
2022/10/06 01:48:25;;;;;;;6.75;4.38;;;;;;;14.80;100.00;101151.66;5108349;28;20052;-85
2022/10/06 01:50:53;;;;;;;6.85;4.72;;;;;;;14.78;100.00;101159.78;5103347;28;20045;-84
2022/10/06 01:53:21;;;;;;;5.45;4.43;;;;;;;14.63;100.00;101136.59;5109073;28;20495;-84
2022/10/06 01:55:47;;;;;;;6.13;4.70;;;;;;;14.63;100.00;101139.25;5104081;28;20044;-78
2022/10/06 01:58:14;;;;;;;7.07;4.50;;;;;;;14.60;100.00;101144.72;5105804;28;20056;-83
2022/10/06 02:00:41;;;;;;;8.00;5.07;;;;;;;14.60;100.00;101144.72;5111141;28;20083;-78
2022/10/06 02:03:08;;;;;;;10.95;5.25;;;;;;;14.69;100.00;101161.09;5109371;28;20122;-75
2022/10/06 02:05:35;;;;;;;9.77;5.90;;;;;;;14.73;100.00;101170.66;5103721;28;20047;-80
2022/10/06 02:08:03;;;;;;;7.60;5.15;;;;;;;14.61;100.00;101151.78;5105473;28;20043;-83
2022/10/06 02:10:30;;;;;;;8.80;5.68;;;;;;;14.80;100.00;101189.84;5109980;28;20478;-72
2022/10/06 02:12:56;;;;;;;8.95;5.57;;;;;;;14.84;100.00;101193.25;5109926;28;20039;-80
2022/10/06 02:15:25;;;;;;;9.05;5.50;;;;;;;14.89;100.00;101200.06;5111235;28;20513;-80
2022/10/06 02:17:53;;;;;;;7.15;5.22;;;;;;;14.92;100.00;101221.25;5110045;28;20127;-78
2022/10/06 02:20:20;;;;;;;8.20;5.10;;;;;;;14.91;100.00;101230.19;5107129;28;20478;-83
2022/10/06 02:22:46;;;;;;;8.18;4.90;;;;;;;14.80;100.00;101200.53;5104415;28;20051;-79
2022/10/06 02:25:13;;;;;;;6.63;5.05;;;;;;;14.88;100.00;101217.00;5106624;28;20063;-78
2022/10/06 02:27:39;;;;;;;6.43;4.72;;;;;;;14.85;100.00;101219.81;5102943;28;20050;-83
2022/10/06 02:30:07;;;;;;;8.73;5.25;;;;;;;14.85;100.00;101227.81;5108218;28;20051;-79
2022/10/06 02:32:36;;;;;;;6.65;5.20;;;;;;;14.72;100.00;101214.25;5099269;28;20066;-80
2022/10/06 02:35:03;;;;;;;5.80;4.80;;;;;;;14.80;100.00;101237.84;5102534;28;20058;-79
2022/10/06 02:37:30;;;;;;;8.85;4.68;;;;;;;14.66;100.00;101214.56;5112826;28;20130;-81
2022/10/06 02:39:56;;;;;;;7.63;4.93;;;;;;;14.66;100.00;101225.22;5104085;28;20046;-84
2022/10/06 02:42:23;;;;;;;5.35;3.78;;;;;;;14.64;100.00;101223.56;5105036;28;20055;-77
2022/10/06 02:44:51;;;;;;;6.75;3.65;;;;;;;14.74;100.00;101254.19;5102687;28;20044;-79
2022/10/06 02:47:21;;;;;;;5.32;3.53;;;;;;;14.63;100.00;101235.22;5109668;28;20101;-74
2022/10/06 02:49:47;;;;;;;5.15;3.70;;;;;;;14.76;100.00;101264.78;5107950;28;20052;-76
2022/10/06 02:52:14;;;;;;;9.00;3.45;;;;;;;14.76;100.00;101259.44;5106100;28;20134;-81
2022/10/06 02:54:41;;;;;;;4.07;2.85;;;;;;;14.64;100.00;101243.09;5102877;28;20092;-83
2022/10/06 02:57:08;;;;;;;4.25;3.13;;;;;;;14.79;100.00;101276.16;5105950;28;20043;-84
2022/10/06 02:59:35;;;;;;;4.88;3.20;;;;;;;14.81;100.00;101292.03;5105163;28;20054;-74
2022/10/06 03:02:02;;;;;;;4.15;2.55;;;;;;;14.80;100.00;101288.50;5110072;28;20044;-85
2022/10/06 03:04:29;;;;;;;2.92;1.40;;;;;;;14.83;100.00;101282.16;5111018;28;20059;-81
2022/10/06 03:06:56;;;;;;;2.70;1.48;;;;;;;14.79;100.00;101272.63;5105797;28;20369;-85
2022/10/06 03:09:23;;;;;;;6.70;1.40;;;;;;;14.84;100.00;101279.44;5104516;28;20070;-79
2022/10/06 03:11:50;;;;;;;3.20;1.10;;;;;;;14.92;100.00;101295.06;5109597;28;20047;-81
2022/10/06 03:14:17;;;;;;;2.17;0.98;;;;;;;14.80;100.00;101272.50;5108101;28;20054;-82
2022/10/06 03:16:49;;;;;;;2.03;0.65;;;;;;;14.94;100.00;101298.50;5104285;28;20134;-81
2022/10/06 03:19:15;;;;;;;1.73;0.75;;;;;;;14.83;100.00;101275.03;5107177;28;20054;-78
2022/10/06 03:21:43;;;;;;;1.55;0.40;;;;;;;14.97;97.84;101307.19;5107891;28;20487;-79
2022/10/06 03:24:10;;;;;;;3.10;0.98;;;;;;;14.99;96.54;101316.00;5108115;28;20078;-78
2022/10/06 03:26:42;;;;;;;1.83;0.40;;;;;;;15.01;94.41;101318.59;5106394;28;20052;-82
2022/10/06 03:29:09;;;;;;;1.88;0.55;;;;;;;15.03;89.94;101322.03;5110575;28;20043;-80
2022/10/06 03:31:38;;;;;;;1.90;0.60;;;;;;;15.05;90.16;101329.03;5107816;28;20128;-84
2022/10/06 03:34:05;;;;;;;3.80;0.50;;;;;;;15.05;90.54;101323.69;5111183;28;20063;-84
2022/10/06 03:36:33;;;;;;;1.23;0.50;;;;;;;15.04;90.56;101324.63;5110799;28;20054;-72
2022/10/06 03:39:01;;;;;;;3.03;0.70;;;;;;;14.93;90.23;101310.13;5113393;28;20403;-84
2022/10/06 03:41:30;;;;;;;1.50;0.40;;;;;;;14.91;88.54;101310.19;5113403;28;20240;-73
2022/10/06 03:43:58;;;;;;;1.17;0.40;;;;;;;15.07;88.88;101348.50;5114165;28;20043;-75
2022/10/06 03:46:27;;;;;;;2.53;0.50;;;;;;;15.07;89.64;101358.28;5113538;27;20046;-83
2022/10/06 03:48:56;;;;;;;1.85;0.60;;;;;;;15.03;90.35;101354.91;5106214;28;20058;-82
2022/10/06 03:51:34;;;;;;;1.80;0.40;;;;;;;15.06;90.89;101369.91;5108721;28;20043;-81
2022/10/06 03:54:02;;;;;;;3.35;0.60;;;;;;;14.88;90.99;101342.34;5106288;28;20126;-77
2022/10/06 03:56:29;;;;;;;1.83;0.75;;;;;;;15.02;91.42;101379.00;5103885;28;20046;-81
2022/10/06 03:59:01;;;;;;;1.73;0.70;;;;;;;14.84;91.86;101356.75;5081986;28;20058;-81
2022/10/06 04:01:36;;;;;;;2.08;0.63;;;;;;;14.97;92.13;101386.34;5104961;28;20126;-78
2022/10/06 04:04:04;;;;;;;4.72;0.60;;;;;;;14.95;92.10;101380.25;5107190;28;20069;-77
2022/10/06 04:06:35;;;;;;;3.95;0.60;;;;;;;14.94;92.74;101379.38;5107106;28;20406;-83
2022/10/06 04:09:02;;;;;;;;;;;;;;;14.94;92.99;101382.06;5109622;28;20078;-85
2022/10/06 04:11:31;;;;;;;2.70;0.75;;;;;;;14.91;93.45;101384.88;5105477;28;19924;-80
2022/10/06 04:14:00;;;;;;;2.00;0.50;;;;;;;14.89;92.41;101391.22;5112940;28;20539;-81
2022/10/06 04:16:32;;;;;;;2.70;0.52;;;;;;;14.88;91.64;101398.34;5102588;28;20481;-83
2022/10/06 04:19:01;;;;;;;4.32;0.60;;;;;;;14.88;91.56;101406.34;5109270;28;20051;-85
2022/10/06 04:21:30;;;;;;;2.83;0.60;;;;;;;14.73;91.67;101386.63;5108536;28;20044;-84
2022/10/06 04:23:58;;;;;;;3.40;0.50;;;;;;;14.73;91.11;101393.75;5106148;28;20435;-76
2022/10/06 04:26:29;;;;;;;1.48;0.60;;;;;;;14.83;91.42;101412.81;5110272;28;20412;-76
2022/10/06 04:28:56;;;;;;;3.58;0.60;;;;;;;14.85;89.56;101422.50;5109985;27;20548;-81
2022/10/06 04:31:25;;;;;;;2.35;0.70;;;;;;;14.89;88.71;101416.06;5106412;28;20050;-82
2022/10/06 04:33:57;;;;;;;3.55;0.70;;;;;;;14.82;88.64;101416.44;5107838;28;20047;-78
2022/10/06 04:36:29;;;;;;;2.53;0.80;;;;;;;14.84;88.96;101428.75;5109754;28;20078;-83
2022/10/06 04:38:58;;;;;;;2.83;0.60;;;;;;;14.68;88.81;101417.97;5112129;28;20697;-80
2022/10/06 04:41:27;;;;;;;2.63;0.60;;;;;;;14.63;89.61;101406.69;5114002;28;20059;-81
2022/10/06 04:43:54;;;;;;;7.35;0.80;;;;;;;14.73;89.24;101434.63;5109430;28;20152;-77
2022/10/06 04:46:22;;;;;;;4.07;0.90;;;;;;;14.72;88.84;101440.03;5127646;27;20087;-69
2022/10/06 04:49:09;;;;;;;7.65;1.00;;;;;;;14.70;88.48;101449.88;5112913;28;20039;-80
2022/10/06 04:51:44;;;;;;;2.80;0.88;;;;;;;14.70;88.60;101449.88;5105592;28;20028;-82
2022/10/06 04:54:10;;;;;;;3.65;0.90;;;;;;;14.66;88.04;101456.28;5109793;28;20054;-80
2022/10/06 04:56:37;;;;;;;2.80;1.00;;;;;;;14.43;88.19;101413.88;5110549;28;20067;-77
2022/10/06 04:59:04;;;;;;;6.50;1.20;;;;;;;14.65;88.34;101470.56;5115523;28;20048;-84
2022/10/06 05:01:32;;;;;;;2.00;0.43;;;;;;;14.59;88.16;101463.72;5108684;28;20130;-86
2022/10/06 05:04:00;;;;;;;2.75;0.73;;;;;;;14.58;88.82;101469.13;5112773;28;20043;-81
2022/10/06 05:06:30;;;;;;;3.33;0.80;;;;;;;14.41;88.96;101458.38;5109648;28;20071;-83
2022/10/06 05:08:59;;;;;;;1.85;0.80;;;;;;;14.18;89.71;101456.72;5109018;28;20044;-81
2022/10/06 05:11:26;;;;;;;3.45;0.88;;;;;;;14.21;90.83;101494.75;5106480;28;20055;-72
2022/10/06 05:13:54;;;;;;;3.05;0.80;;;;;;;14.09;91.35;101502.41;5106583;28;20418;-79
2022/10/06 05:16:22;;;;;;;2.42;0.70;;;;;;;13.84;91.34;101476.00;5092428;28;20043;-80
2022/10/06 05:18:49;;;;;;;4.35;1.52;;;;;;;13.84;91.91;101497.31;5103908;28;20036;-84
2022/10/06 05:21:18;;;;;;;4.50;1.38;;;;;;;13.80;92.71;101509.00;5105046;27;20117;-82
2022/10/06 05:23:45;;;;;;;3.53;1.10;;;;;;;13.72;93.04;101506.66;5108852;28;20048;-80
2022/10/06 05:26:19;;;;;;;3.97;0.90;;;;;;;13.67;93.01;101517.53;5100572;28;20491;-82
2022/10/06 05:28:46;;;;;;;4.32;1.25;;;;;;;13.74;92.49;101525.22;5106075;28;20662;-81
2022/10/06 05:31:14;;;;;;;3.65;0.82;;;;;;;13.77;90.30;101528.63;5107392;28;20813;-80
2022/10/06 05:33:42;;;;;;;3.47;0.70;;;;;;;13.93;86.35;101518.19;5082334;28;20124;-72
2022/10/06 05:36:14;;;;;;;3.22;1.05;;;;;;;14.00;86.52;101527.66;5105770;28;20042;-80
2022/10/06 05:38:40;;;;;;;3.35;0.70;;;;;;;13.98;86.42;101529.53;5125732;28;20047;-76
2022/10/06 05:41:11;;;;;;;4.40;1.05;;;;;;;13.87;85.98;101518.44;5127355;28;20065;-72
2022/10/06 05:43:38;;;;;;;;;;;;;;;13.93;85.49;101543.03;5129659;27;20183;-77
2022/10/06 05:46:09;;;;;;;7.93;0.80;;;;;;;13.80;82.27;101524.97;5108627;28;19959;-72
2022/10/06 05:48:35;;;;;;;1.65;0.63;;;;;;;13.90;82.61;101559.13;5106271;28;20467;-79
2022/10/06 05:51:08;;;;;;;3.08;0.88;;;;;;;13.73;82.14;101539.47;5107551;28;20060;-82
2022/10/06 05:53:35;;;;;;;5.90;0.82;;;;;;;13.84;81.96;101571.84;5110381;28;20054;-81
2022/10/06 05:56:06;;;;;;;3.90;0.90;;;;;;;13.79;82.01;101576.50;5106221;28;20138;-78
2022/10/06 05:58:35;;;;;;;5.35;0.80;;;;;;;13.77;81.68;101575.69;5110170;28;20052;-82
2022/10/06 06:01:10;;;;;;;7.72;1.02;;;;;;;13.66;80.88;101560.16;5101407;27;20128;-81
2022/10/06 06:03:37;;;;;;;5.28;1.10;;;;;;;13.86;81.03;101585.94;5109477;27;20055;-80
2022/10/06 06:06:23;;;;;;;4.32;0.90;;;;;;;13.73;81.25;101582.94;5105895;28;20488;-81
2022/10/06 06:08:58;;;;;;;3.28;0.90;;;;;;;13.65;82.14;101585.06;5107673;27;20044;-80
2022/10/06 06:11:26;;;;;;;10.30;1.23;;;;;;;13.73;82.88;101608.69;5107739;28;20043;-76
2022/10/06 06:14:01;;;;;;;4.35;1.35;;;;;;;13.66;83.33;101614.28;5103305;28;20070;-80
2022/10/06 06:16:31;;;;;;;7.32;1.25;;;;;;;13.64;83.08;101620.59;5105999;28;20046;-82
2022/10/06 06:18:59;;;;;;;5.53;1.05;;;;;;;13.66;82.45;101627.59;5105354;28;20046;-85
2022/10/06 06:21:27;;;;;;;5.45;0.80;;;;;;;13.66;82.11;101630.25;5116695;28;20052;-74
2022/10/06 06:23:54;;;;;;;6.40;1.13;;;;;;;13.53;82.35;101615.69;5113975;28;20111;-76
2022/10/06 06:26:26;;;;;;;6.80;1.10;;;;;;;13.50;82.97;101615.81;5126528;28;20039;-75
2022/10/06 06:28:55;;;;;;;4.75;1.20;;;;;;;13.63;83.41;101640.13;5108362;27;20071;-78
2022/10/06 06:31:25;;;;;;;2.28;0.85;;;;;;;13.62;83.98;101649.06;5103666;28;20119;-82
2022/10/06 06:33:55;;;;;;;9.18;3.00;;;;;;;13.65;84.55;101654.25;5096052;28;20044;-76
2022/10/06 06:36:27;;;;;;;7.78;1.20;;;;;;;13.65;84.18;101667.56;5106347;28;20058;-81
2022/10/06 06:38:56;;;;;;;6.78;1.00;;;;;;;13.69;83.20;101666.53;5099115;28;20050;-79
2022/10/06 06:41:23;;;;;;;7.55;1.10;;;;;;;13.54;83.55;101646.69;5103893;28;20052;-84
2022/10/06 06:43:54;;;;;;;7.90;1.10;;;;;;;13.66;82.73;101666.63;5103344;27;20136;-83
2022/10/06 06:46:23;;;;;;;5.38;1.05;;;;;;;13.65;82.88;101657.78;5105563;27;20035;-81
2022/10/06 06:48:54;;;;;;;4.90;1.13;;;;;;;13.81;82.75;101687.34;5093589;28;20075;-78
2022/10/06 06:51:22;;;;;;;7.53;1.33;;;;;;;13.77;82.41;101682.19;5100265;28;20050;-80
2022/10/06 06:53:51;;;;;;;4.13;1.13;;;;;;;14.00;82.13;101708.78;5100500;28;20408;-79
2022/10/06 06:56:20;;;;;;;7.05;1.30;;;;;;;13.98;78.77;101678.66;5096579;28;20106;-81
2022/10/06 06:58:46;;;;;;;7.68;1.02;;;;;;;14.33;77.69;101712.69;5082238;28;20058;-82
2022/10/06 07:01:16;;;;;;;7.40;1.10;;;;;;;14.50;75.75;101719.16;5101051;28;20048;-83
2022/10/06 07:03:45;;;;;;;5.88;1.13;;;;;;;14.65;75.57;101722.03;5098593;28;20048;-84
2022/10/06 07:06:29;;;;;;;8.35;1.35;;;;;;;14.85;74.66;101715.84;5096481;28;20032;-77
2022/10/06 07:08:57;;;;;;;4.82;1.10;;;;;;;14.87;71.76;101695.31;5098993;28;20070;-79
2022/10/06 07:11:32;;;;;;;4.45;1.10;;;;;;;15.13;72.10;101725.28;5095368;28;20067;-77
2022/10/06 07:14:01;;;;;;;7.93;1.77;;;;;;;15.28;71.82;101733.47;5095988;28;20101;-79
2022/10/06 07:25:10;;;;;;;8.80;1.48;;;;;;;15.87;66.25;101732.53;5110272;28;20127;-79
2022/10/06 07:27:45;;;;;;;4.38;1.08;;;;;;;15.73;67.61;101738.53;5105709;28;20044;-76
2022/10/06 07:30:18;;;;;;;5.63;1.30;;;;;;;15.57;67.65;101734.00;5101223;28;20049;-83
2022/10/06 07:32:49;;;;;;;10.07;1.63;;;;;;;15.67;66.56;101733.47;5108454;28;20044;-79
2022/10/06 07:35:19;;;;;;;6.07;1.38;;;;;;;15.81;66.43;101761.34;5106637;28;20095;-81
2022/10/06 07:37:46;;;;;;;6.40;0.80;;;;;;;15.67;66.32;101752.16;5107126;28;20067;-75
2022/10/06 07:40:16;;;;;;;6.35;1.23;;;;;;;15.77;64.85;101731.22;5105690;28;20078;-82
2022/10/06 07:42:50;;;;;;;4.40;1.00;;;;;;;15.89;63.52;101756.50;5099050;28;20711;-84
2022/10/06 07:45:39;;;;;;;7.15;1.33;;;;;;;15.86;63.09;101759.31;5098935;28;20060;-83
2022/10/06 07:48:13;;;;;;;8.43;0.98;;;;;;;15.78;62.93;101768.53;5104623;28;20133;-81
2022/10/06 07:50:41;;;;;;;6.85;1.48;;;;;;;15.78;62.65;101768.53;5109641;27;20044;-81
2022/10/06 07:53:08;;;;;;;5.50;0.90;;;;;;;15.73;63.20;101780.41;5101799;28;20127;-74
2022/10/06 07:55:39;;;;;;;5.15;1.00;;;;;;;15.69;62.70;101776.13;5105345;28;20112;-83
2022/10/06 07:58:13;;;;;;;5.88;1.10;;;;;;;15.65;63.05;101782.53;5108543;28;20047;-81
2022/10/06 08:00:41;;;;;;;7.22;1.48;;;;;;;15.64;62.67;101786.16;5110509;28;20142;-75
2022/10/06 08:03:09;;;;;;;6.15;1.75;;;;;;;15.62;62.92;101785.34;5101334;28;20108;-82
2022/10/06 08:05:37;;;;;;;13.10;1.45;;;;;;;15.42;62.78;101780.91;5101306;28;20155;-82
2022/10/06 08:08:05;;;;;;;6.38;1.10;;;;;;;15.43;63.52;101796.81;5104754;28;20059;-81
2022/10/06 08:10:31;;;;;;;5.30;1.00;;;;;;;15.43;63.07;101799.50;5102129;28;20513;-77
2022/10/06 08:13:00;;;;;;;10.98;1.45;;;;;;;15.44;63.35;101805.69;5074122;28;20138;-77
2022/10/06 08:15:26;;;;;;;7.07;1.30;;;;;;;15.19;63.04;101762.38;5100238;28;20043;-76
2022/10/06 08:17:53;;;;;;;7.60;1.30;;;;;;;15.36;63.75;101811.41;5102653;28;20047;-76
2022/10/06 08:20:20;;;;;;;6.03;0.85;;;;;;;15.29;63.87;101806.38;5098173;28;20052;-77
2022/10/06 08:22:47;;;;;;;8.30;1.50;;;;;;;15.25;63.91;101826.16;5100110;28;20500;-73
2022/10/06 08:25:13;;;;;;;6.72;1.38;;;;;;;15.13;62.50;101808.84;5105295;28;20054;-76
2022/10/06 08:27:42;;;;;;;7.88;1.45;;;;;;;15.03;63.21;101821.75;5093407;28;20048;-76
2022/10/06 08:30:10;;;;;;;7.28;1.30;;;;;;;14.99;64.00;101828.13;5105583;28;20048;-77
2022/10/06 08:32:38;;;;;;;9.35;1.42;;;;;;;14.91;63.07;101826.72;5097032;28;20047;-76
2022/10/06 08:35:04;;;;;;;6.70;1.20;;;;;;;14.90;62.61;101841.00;5088186;28;20496;-78
2022/10/06 08:37:31;;;;;;;4.90;1.60;;;;;;;14.95;63.19;101847.84;5096878;28;20059;-79
2022/10/06 08:39:57;;;;;;;14.45;1.42;;;;;;;15.09;63.90;101856.16;5098003;28;20047;-79
2022/10/06 08:42:41;;;;;;;13.50;1.85;;;;;;;15.23;63.62;101850.25;5093222;28;20040;-83
2022/10/06 08:45:16;;;;;;;7.35;1.38;;;;;;;15.20;61.78;101828.16;5095273;28;20044;-80
2022/10/06 08:48:08;;;;;;;9.15;1.20;;;;;;;15.38;59.93;101844.22;5099783;28;20085;-80
2022/10/06 08:50:59;;;;;;;9.38;1.65;;;;;;;15.33;61.21;101832.00;5097189;28;20047;-80
2022/10/06 08:53:47;;;;;;;7.50;1.20;;;;;;;15.25;60.02;101805.69;5099162;28;20044;-79
2022/10/06 08:56:30;;;;;;;7.55;1.70;;;;;;;15.50;59.48;101856.16;5097399;28;20048;-77
2022/10/06 08:59:03;;;;;;;9.05;1.38;;;;;;;15.53;60.16;101858.72;5098301;28;20051;-73
2022/10/06 09:01:40;;;;;;;10.13;1.55;;;;;;;15.41;60.41;101833.44;5100670;28;20047;-80
2022/10/06 09:04:14;;;;;;;9.98;1.48;;;;;;;15.61;59.91;101871.72;5098088;28;20065;-77
2022/10/06 09:06:50;;;;;;;8.85;1.52;;;;;;;15.66;57.73;101865.25;5096636;28;20050;-78
2022/10/06 09:09:33;;;;;;;12.68;1.92;;;;;;;15.75;59.70;101870.19;5108944;28;20146;-79
2022/10/06 09:12:29;;;;;;;9.63;2.60;;;;;;;15.85;59.54;101872.44;5101852;28;20134;-81
2022/10/06 09:15:16;;;;;;;9.05;2.13;;;;;;;16.01;58.10;101871.69;5054485;28;20040;-81
2022/10/06 09:17:55;;;;;;;7.78;1.73;;;;;;;16.13;57.33;101840.84;5107781;28;20055;-82
2022/10/06 09:20:33;;;;;;;15.35;3.42;;;;;;;16.33;57.29;101854.13;5106283;28;20063;-72
2022/10/06 09:23:03;;;;;;;6.95;1.30;;;;;;;16.56;55.24;101868.19;5119328;28;20055;-79
2022/10/06 09:25:29;;;;;;;9.70;1.50;;;;;;;16.54;55.87;101873.59;5081079;28;20050;-78
2022/10/06 09:27:59;;;;;;;13.18;1.15;;;;;;;16.52;53.46;101875.50;5102295;27;20538;-79
2022/10/06 09:30:26;;;;;;;10.43;2.03;;;;;;;16.50;53.60;101853.31;5104750;27;20514;-77
2022/10/06 09:33:02;;;;;;;11.05;1.58;;;;;;;16.69;54.03;101874.69;5103350;27;20051;-76
2022/10/06 09:35:30;;;;;;;7.15;1.63;;;;;;;16.75;53.96;101875.28;5104239;27;20052;-78
2022/10/06 09:38:03;;;;;;;6.28;1.23;;;;;;;16.65;54.33;101857.97;5106309;28;20063;-71
2022/10/06 09:40:44;;;;;;;8.10;2.70;;;;;;;16.85;55.83;101875.69;5098276;28;20151;-75
2022/10/06 09:43:26;;;;;;;6.75;1.30;;;;;;;16.92;51.60;101876.25;5103947;28;20047;-78
2022/10/06 09:45:54;;;;;;;7.82;1.75;;;;;;;16.87;51.81;101881.81;5094151;28;20410;-80
2022/10/06 09:48:24;;;;;;;4.80;1.30;;;;;;;16.88;51.80;101888.91;5107460;28;20053;-81
2022/10/06 09:51:16;;;;;;;12.13;1.70;;;;;;;16.67;50.43;101884.63;5102845;28;20100;-79
2022/10/06 09:54:01;;;;;;;11.48;1.42;;;;;;;16.60;51.03;101873.31;5096921;28;20111;-80
2022/10/06 09:56:28;;;;;;;8.88;1.70;;;;;;;16.72;51.79;101874.56;5092951;28;20135;-79
2022/10/06 09:58:57;;;;;;;4.22;1.10;;;;;;;16.72;51.19;101858.50;5099103;28;20040;-76
2022/10/06 10:01:27;;;;;;;8.27;1.35;;;;;;;17.07;52.43;101881.69;5098608;28;20509;-79
2022/10/06 10:03:59;;;;;;;7.97;1.10;;;;;;;17.14;48.74;101882.28;5100920;28;20048;-79
2022/10/06 10:06:45;;;;;;;8.27;2.53;;;;;;;16.95;49.98;101879.66;5094980;28;20044;-76
2022/10/06 10:09:22;;;;;;;7.35;1.83;;;;;;;16.95;50.59;101878.78;5106860;28;20141;-80
2022/10/06 10:12:23;;;;;;;7.47;1.48;;;;;;;16.88;50.99;101880.00;5100557;28;20406;-72
2022/10/06 10:14:50;;;;;;;10.00;1.20;;;;;;;16.80;49.35;101880.41;5092441;28;20052;-76
2022/10/06 10:17:34;;;;;;;7.35;1.35;;;;;;;16.86;49.69;101882.75;5093694;28;20043;-79
2022/10/06 10:20:02;;;;;;;9.95;1.38;;;;;;;16.79;49.49;101884.03;5098138;28;20063;-75
2022/10/06 10:22:33;;;;;;;5.90;1.30;;;;;;;16.64;49.35;101858.03;5097197;28;20079;-75
2022/10/06 10:25:06;;;;;;;5.70;1.77;;;;;;;16.85;50.21;101883.69;5099037;28;20143;-72
2022/10/06 10:27:44;;;;;;;7.60;1.45;;;;;;;16.89;50.10;101855.84;5098176;28;20653;-75
2022/10/06 10:30:13;;;;;;;11.15;1.80;;;;;;;17.24;50.23;101866.59;5096036;28;20059;-76
2022/10/06 10:33:10;;;;;;;6.50;1.38;;;;;;;17.42;49.27;101877.22;5103009;28;20054;-78
2022/10/06 10:35:50;;;;;;;5.93;1.55;;;;;;;17.59;48.78;101873.66;5094141;27;20134;-76
2022/10/06 10:38:25;;;;;;;6.53;1.55;;;;;;;17.72;48.67;101881.94;5095720;28;20040;-80
2022/10/06 10:41:05;;;;;;;6.07;1.27;;;;;;;17.64;47.87;101876.97;5092639;28;20268;-78
2022/10/06 10:43:33;;;;;;;7.20;1.83;;;;;;;17.58;47.91;101866.56;5101108;27;20158;-79
2022/10/06 10:46:11;;;;;;;5.50;1.30;;;;;;;17.39;48.20;101855.09;5094078;27;20058;-79
2022/10/06 10:49:12;;;;;;;6.45;1.63;;;;;;;17.47;47.81;101868.97;5091006;28;20476;-74
2022/10/06 10:52:14;;;;;;;6.47;1.63;;;;;;;17.61;48.25;101879.81;5100079;28;20121;-81
2022/10/06 10:54:47;;;;;;;6.70;1.70;;;;;;;17.69;48.88;101885.66;5053638;28;20139;-79
2022/10/06 10:57:27;;;;;;;7.65;1.27;;;;;;;17.78;47.87;101874.47;5103066;28;20137;-75
2022/10/06 11:00:00;;;;;;;8.65;1.58;;;;;;;17.98;47.11;101881.41;5100671;28;20044;-76
2022/10/06 11:02:27;;;;;;;8.07;1.67;;;;;;;17.86;46.99;101877.56;5110731;28;20521;-77
2022/10/06 11:05:02;;;;;;;7.32;1.60;;;;;;;17.78;47.10;101879.81;5098963;28;20055;-74
2022/10/06 11:07:57;;;;;;;5.63;1.25;;;;;;;17.82;47.43;101876.00;5107138;28;20047;-78
2022/10/06 11:10:39;;;;;;;8.57;1.80;;;;;;;17.89;46.21;101876.56;5104301;28;20047;-77
2022/10/06 11:13:13;;;;;;;8.32;1.65;;;;;;;17.68;46.29;101883.91;5108918;28;20564;-81
2022/10/06 11:15:47;;;;;;;5.32;1.20;;;;;;;17.48;46.26;101881.38;5104082;28;20398;-79
2022/10/06 11:18:29;;;;;;;4.53;1.10;;;;;;;17.68;45.48;101877.69;5099575;28;20043;-78
2022/10/06 11:21:10;;;;;;;10.32;2.17;;;;;;;17.84;46.81;101874.09;5103849;28;20047;-78
2022/10/06 11:23:43;;;;;;;9.43;1.48;;;;;;;17.94;46.71;101873.63;5104823;28;20050;-78
2022/10/06 11:26:34;;;;;;;5.85;1.77;;;;;;;18.11;46.21;101869.06;5105829;28;20054;-77
2022/10/06 11:29:25;;;;;;;5.82;0.95;;;;;;;18.22;46.29;101881.88;5101315;28;20075;-79
2022/10/06 11:32:11;;;;;;;11.02;1.50;;;;;;;18.35;45.35;101880.25;5104139;28;20571;-76
2022/10/06 11:34:39;;;;;;;6.70;1.88;;;;;;;18.41;44.71;101871.88;5104355;28;20043;-77
2022/10/06 11:37:27;;;;;;;5.95;1.45;;;;;;;18.41;43.88;101871.88;5106295;28;20052;-77
2022/10/06 11:40:35;;;;;;;5.93;1.15;;;;;;;18.30;43.98;101866.22;5099864;28;20136;-80
2022/10/06 11:43:08;;;;;;;9.82;1.27;;;;;;;18.04;42.55;101866.81;5105613;28;20044;-79
2022/10/06 11:45:53;;;;;;;5.25;1.05;;;;;;;17.81;44.19;101860.00;5104009;28;20043;-80
2022/10/06 11:48:31;;;;;;;8.32;1.45;;;;;;;17.75;45.58;101833.56;5104154;28;20050;-77
2022/10/06 11:51:16;;;;;;;8.20;1.40;;;;;;;17.76;45.19;101832.63;5108024;28;20048;-76